Tindal Airport
YPTN : rendu visible

Aérodrome :











RETROUVEZ-NOUS SUR...

 
LOGIN :

S'inscrire | Disclaimer

   EN    FR    IT 

 









Légende :    VFR   VFR Marginal   IFR   IFR Intensif   IFR Très Intensif
Visi : 
Plafond : 
>= 8 km
>= 3000ft
5 à 8 km
1000 à 3000 ft
1500m à 5 km
500 à 1000 ft
800 à 1500m
200 à 500 ft
< 800m
< 200 ft
Symboles :   Orages  Brouillard  Fortes neiges  Fortes précipitations  Vent > 20 kt






- Altitude de l'aérodrome : 443 ft
- Code IATA : KTR


YPTN - Tindal

DERNIER METAR :
  • 011100Z AUTO 11004KT 9999 // NCD 30/17 Q1009

METARs EXPIRÉS :
  • 011030Z AUTO 12005KT 090V160 9999 // NCD 30/18 Q1008
  • 011000Z AUTO 08005KT 9999 // NCD 32/16 Q1008
  • 010930Z AUTO 08005KT 9999 // NCD 33/16 Q1007
  • 010900Z AUTO 10006KT 9999 // SCT110 35/15 Q1007
  • 010830Z AUTO 10007KT 9999 // BKN110 36/14 Q1007

TAF TAF YPTN
Valide du 01 à 06h jusqu'au 02 à 06h UTC


010509Z 0106/0206 09007KT CAVOK
FM011600 01005KT 9999 SCT020
FM020000 33007KT CAVOK



MET'MAP, la Météo Aéronautique d'un coup d'oeil ! - Copyright ORBIFLY Décembre 2007 - Disclaimer

ORBIFLY MET'MAP TEAM :

Programmation & Développement : Alexandra Zaïnal
Sur une idée originale de : Baudouin d'Aumeries
Assistance à la programmation : Marc-Olivier Méhu
Soutien technique & logistique : Manuel Goepfert

Contact : metmap@orbifly.com




SOURCES & CREDITS :

   NOAA       Earth
Advisory